sensor_id;sensor_type;location;lat;lon;timestamp;P1;durP1;ratioP1;P2;durP2;ratioP2
76749;SDS011;66447;35.844;14.468;2023-07-09T00:08:05;5.97;;;3.50;;
76749;SDS011;66447;35.844;14.468;2023-07-09T00:23:08;6.20;;;3.03;;
76749;SDS011;66447;35.844;14.468;2023-07-09T00:38:13;5.23;;;2.63;;
76749;SDS011;66447;35.844;14.468;2023-07-09T00:53:25;5.77;;;2.93;;
76749;SDS011;66447;35.844;14.468;2023-07-09T01:08:31;5.23;;;2.53;;
76749;SDS011;66447;35.844;14.468;2023-07-09T01:23:34;5.30;;;2.90;;
76749;SDS011;66447;35.844;14.468;2023-07-09T01:38:35;8.60;;;3.37;;
76749;SDS011;66447;35.844;14.468;2023-07-09T01:53:36;5.50;;;2.78;;
76749;SDS011;66447;35.844;14.468;2023-07-09T02:08:39;7.13;;;3.07;;
76749;SDS011;66447;35.844;14.468;2023-07-09T02:23:39;5.18;;;3.05;;
76749;SDS011;66447;35.844;14.468;2023-07-09T02:38:40;4.82;;;2.95;;
76749;SDS011;66447;35.844;14.468;2023-07-09T02:53:41;5.85;;;3.05;;
76749;SDS011;66447;35.844;14.468;2023-07-09T03:08:42;6.03;;;3.50;;
76749;SDS011;66447;35.844;14.468;2023-07-09T03:23:43;4.38;;;3.10;;
76749;SDS011;66447;35.844;14.468;2023-07-09T03:38:46;7.63;;;3.40;;
76749;SDS011;66447;35.844;14.468;2023-07-09T03:53:48;10.83;;;4.80;;
76749;SDS011;66447;35.844;14.468;2023-07-09T04:08:48;11.98;;;5.30;;
76749;SDS011;66447;35.844;14.468;2023-07-09T04:23:49;6.40;;;3.88;;
76749;SDS011;66447;35.844;14.468;2023-07-09T04:38:50;7.72;;;3.88;;
76749;SDS011;66447;35.844;14.468;2023-07-09T04:53:51;10.43;;;3.97;;
76749;SDS011;66447;35.844;14.468;2023-07-09T05:08:52;13.00;;;4.43;;
76749;SDS011;66447;35.844;14.468;2023-07-09T05:23:53;10.13;;;4.18;;
76749;SDS011;66447;35.844;14.468;2023-07-09T05:38:54;10.23;;;3.97;;
76749;SDS011;66447;35.844;14.468;2023-07-09T05:53:56;11.67;;;4.80;;
76749;SDS011;66447;35.844;14.468;2023-07-09T06:08:57;5.95;;;3.78;;
76749;SDS011;66447;35.844;14.468;2023-07-09T06:23:58;7.63;;;3.63;;
76749;SDS011;66447;35.844;14.468;2023-07-09T06:38:59;8.07;;;3.80;;
76749;SDS011;66447;35.844;14.468;2023-07-09T06:54:00;7.75;;;3.40;;
76749;SDS011;66447;35.844;14.468;2023-07-09T07:09:00;6.40;;;3.53;;
76749;SDS011;66447;35.844;14.468;2023-07-09T07:24:01;6.72;;;3.60;;
76749;SDS011;66447;35.844;14.468;2023-07-09T07:39:03;6.00;;;3.13;;
76749;SDS011;66447;35.844;14.468;2023-07-09T07:54:04;7.60;;;3.78;;
76749;SDS011;66447;35.844;14.468;2023-07-09T08:09:06;6.93;;;3.63;;
76749;SDS011;66447;35.844;14.468;2023-07-09T08:24:07;6.80;;;3.20;;
76749;SDS011;66447;35.844;14.468;2023-07-09T08:39:08;4.83;;;3.27;;
76749;SDS011;66447;35.844;14.468;2023-07-09T08:54:11;7.13;;;3.30;;
76749;SDS011;66447;35.844;14.468;2023-07-09T09:10:17;10.90;;;3.10;;
76749;SDS011;66447;35.844;14.468;2023-07-09T09:55:16;5.03;;;3.08;;
76749;SDS011;66447;35.844;14.468;2023-07-09T10:10:20;4.67;;;3.00;;
76749;SDS011;66447;35.844;14.468;2023-07-09T10:25:28;4.33;;;2.67;;
76749;SDS011;66447;35.844;14.468;2023-07-09T10:40:57;4.37;;;2.40;;
76749;SDS011;66447;35.844;14.468;2023-07-09T10:56:01;4.40;;;2.77;;
76749;SDS011;66447;35.844;14.468;2023-07-09T11:11:05;5.30;;;2.70;;
76749;SDS011;66447;35.844;14.468;2023-07-09T11:26:12;7.23;;;3.13;;
76749;SDS011;66447;35.844;14.468;2023-07-09T11:56:34;6.50;;;3.00;;
76749;SDS011;66447;35.844;14.468;2023-07-09T12:11:35;7.40;;;2.70;;
76749;SDS011;66447;35.844;14.468;2023-07-09T12:26:36;6.13;;;2.67;;
76749;SDS011;66447;35.844;14.468;2023-07-09T12:41:43;5.25;;;2.45;;
76749;SDS011;66447;35.844;14.468;2023-07-09T12:56:45;3.13;;;2.20;;
76749;SDS011;66447;35.844;14.468;2023-07-09T13:11:46;4.57;;;2.50;;
76749;SDS011;66447;35.844;14.468;2023-07-09T13:26:48;6.33;;;2.10;;
76749;SDS011;66447;35.844;14.468;2023-07-09T13:41:49;4.57;;;2.33;;
76749;SDS011;66447;35.844;14.468;2023-07-09T13:56:53;6.17;;;2.40;;
76749;SDS011;66447;35.844;14.468;2023-07-09T14:11:54;5.60;;;2.60;;
76749;SDS011;66447;35.844;14.468;2023-07-09T14:26:56;7.20;;;2.80;;
76749;SDS011;66447;35.844;14.468;2023-07-09T14:41:57;4.90;;;2.53;;
76749;SDS011;66447;35.844;14.468;2023-07-09T14:57:00;5.40;;;2.50;;
76749;SDS011;66447;35.844;14.468;2023-07-09T15:12:00;5.07;;;2.72;;
76749;SDS011;66447;35.844;14.468;2023-07-09T15:27:01;8.18;;;3.40;;
76749;SDS011;66447;35.844;14.468;2023-07-09T15:42:14;5.37;;;2.53;;
76749;SDS011;66447;35.844;14.468;2023-07-09T15:57:14;6.07;;;2.97;;
76749;SDS011;66447;35.844;14.468;2023-07-09T16:12:16;7.40;;;2.77;;
76749;SDS011;66447;35.844;14.468;2023-07-09T16:27:17;4.43;;;2.67;;
76749;SDS011;66447;35.844;14.468;2023-07-09T16:42:18;7.40;;;2.95;;
76749;SDS011;66447;35.844;14.468;2023-07-09T16:57:20;7.07;;;2.73;;
76749;SDS011;66447;35.844;14.468;2023-07-09T17:12:23;4.67;;;3.10;;
76749;SDS011;66447;35.844;14.468;2023-07-09T17:27:25;6.47;;;2.70;;
76749;SDS011;66447;35.844;14.468;2023-07-09T17:42:26;5.10;;;3.03;;
76749;SDS011;66447;35.844;14.468;2023-07-09T17:57:26;4.90;;;2.65;;
76749;SDS011;66447;35.844;14.468;2023-07-09T18:12:28;5.90;;;2.90;;
76749;SDS011;66447;35.844;14.468;2023-07-09T18:27:32;3.47;;;2.37;;
76749;SDS011;66447;35.844;14.468;2023-07-09T18:42:35;5.17;;;3.20;;
76749;SDS011;66447;35.844;14.468;2023-07-09T18:57:36;4.82;;;2.58;;
76749;SDS011;66447;35.844;14.468;2023-07-09T19:12:37;3.78;;;2.70;;
76749;SDS011;66447;35.844;14.468;2023-07-09T19:27:38;6.67;;;2.83;;
76749;SDS011;66447;35.844;14.468;2023-07-09T19:42:40;4.67;;;2.70;;
76749;SDS011;66447;35.844;14.468;2023-07-09T19:57:41;7.18;;;2.65;;
76749;SDS011;66447;35.844;14.468;2023-07-09T20:12:42;7.15;;;2.95;;
76749;SDS011;66447;35.844;14.468;2023-07-09T20:27:48;5.00;;;2.87;;
76749;SDS011;66447;35.844;14.468;2023-07-09T20:42:51;4.57;;;2.50;;
76749;SDS011;66447;35.844;14.468;2023-07-09T20:57:55;4.60;;;2.47;;
76749;SDS011;66447;35.844;14.468;2023-07-09T21:12:56;4.60;;;2.63;;
76749;SDS011;66447;35.844;14.468;2023-07-09T21:27:57;4.88;;;2.53;;
76749;SDS011;66447;35.844;14.468;2023-07-09T21:42:59;5.53;;;2.42;;
76749;SDS011;66447;35.844;14.468;2023-07-09T21:58:01;7.60;;;2.63;;
76749;SDS011;66447;35.844;14.468;2023-07-09T22:13:02;4.50;;;2.53;;
76749;SDS011;66447;35.844;14.468;2023-07-09T22:28:04;4.90;;;2.70;;
76749;SDS011;66447;35.844;14.468;2023-07-09T22:43:05;5.15;;;2.75;;
76749;SDS011;66447;35.844;14.468;2023-07-09T22:58:07;6.07;;;3.03;;
76749;SDS011;66447;35.844;14.468;2023-07-09T23:13:10;10.73;;;4.50;;
76749;SDS011;66447;35.844;14.468;2023-07-09T23:28:14;16.40;;;5.10;;
76749;SDS011;66447;35.844;14.468;2023-07-09T23:43:16;17.97;;;11.83;;
76749;SDS011;66447;35.844;14.468;2023-07-09T23:58:19;10.40;;;6.20;;
